Brookings, OR

5:04 PM PST on December 22, 2014 (GMT -0800)
Brookings | Change Station
CLOSE
Current Station
Airport
Location: Brookings,
Elevation: 459 ft
Nearby Weather Stations

Elev 459 ft 42.07 °N, 124.29 °W | Updated 8 minutes ago

Overcast
Overcast
57 °F
Feels Like 57 °F
N
5
Wind Variable Wind from SSE

Today
High -- | Low -- °F
--% Chance of Precip.
Yesterday
High -- | Low -- °F
Precip. -- in
7:42 AM 4:49 PM
New Moon, 1% visible
Pressure 30.33 in
Visibility 2.5 miles
Clouds Overcast 100 ft
Dew Point 57 °F
Humidity 100%
Rainfall 0.27 in
Snow Depth Not available.
UV 0 out of 12
Pollen 2.60 out of 12
Air Quality Not available.
Flu Activity Not available.
METAR KBOK 230056Z AUTO 15004KT 2 1/2SM BR OVC001 14/14 A3033 RMK AO2 T01380138 SLP270

More Conditions Fewer Conditions

Pressure 30.33 in
Visibility 2.5 miles
Clouds Overcast 100 ft
Dew Point 57 °F
Humidity 100%
Rainfall 0.27 in
Snow Depth Not available.
UV 0 out of 12
Pollen 2.60 out of 12
Air Quality Not available.
Flu Activity Not available.
METAR KBOK 230056Z AUTO 15004KT 2 1/2SM BR OVC001 14/14 A3033 RMK AO2 T01380138 SLP270

More Conditions Fewer Conditions

10-Day Weather Forecast

Almanac

Astronomy

Dec. 22, 2014 Rise Set
Actual Time
Civil Twilight
Nautical Twilight
Astronomical Twilight
Moon
Length of Visible Light
Length of Day
Tomorrow will be .
, % of the Moon is Illuminated

Today's Extremes

State Highs State Lows

Community

WunderPhotos

Upload Photos

1,779,742 photos uploaded!

WunderBlogs® & News

Nearby

Air Quality

  Air Quality AQ Index Pollutant
Not available.

Snow Depth

Station Depth Elevation

Earthquake Activity

City Distance Mag. Time & Date
Minimum magnitude displayed is 2.5.

Coastal Water Temperatures

Place Temperature

Nearby Weather Stations